Time;durP1;ratioP1;P1;durP2;ratioP2;P2;SDS_P1;SDS_P2;PMS_P1;PMS_P2;Temp;Humidity;BMP_temperature;BMP_pressure;BME280_temperature;BME280_humidity;BME280_pressure;Samples;Min_cycle;Max_cycle;Signal;HPM_P1;HPM_P2
2023/03/23 00:02:11;;;;;;;11.45;6.97;;;;;;;;;;4990515;28;20045;-78
2023/03/23 00:04:37;;;;;;;13.32;6.50;;;;;;;;;;4989878;28;20030;-77
2023/03/23 00:07:03;;;;;;;12.57;7.63;;;;;;;;;;4989946;28;20060;-77
2023/03/23 00:09:29;;;;;;;12.93;7.70;;;;;;;;;;4990780;28;20053;-77
2023/03/23 00:12:04;;;;;;;17.73;7.10;;;;;;;;;;4988866;28;20081;-77
2023/03/23 00:14:40;;;;;;;16.23;8.48;;;;;;;;;;4991154;28;20041;-77
2023/03/23 00:17:10;;;;;;;15.43;8.02;;;;;;;;;;4989820;28;20521;-77
2023/03/23 00:19:45;;;;;;;12.13;7.40;;;;;;;;;;4989716;28;20065;-77
2023/03/23 00:22:12;;;;;;;13.48;7.53;;;;;;;;;;4990326;28;20022;-77
2023/03/23 00:24:38;;;;;;;15.05;7.53;;;;;;;;;;4990290;28;20041;-78
2023/03/23 00:27:03;;;;;;;17.67;8.30;;;;;;;;;;4992895;28;20030;-77
2023/03/23 00:29:29;;;;;;;12.75;7.60;;;;;;;;;;4990588;28;20041;-77
2023/03/23 00:31:56;;;;;;;17.00;8.15;;;;;;;;;;4990183;28;20041;-76
2023/03/23 00:34:24;;;;;;;16.33;8.00;;;;;;;;;;4991386;28;20089;-77
2023/03/23 00:36:57;;;;;;;15.38;8.38;;;;;;;;;;4973949;28;20430;-76
2023/03/23 00:39:25;;;;;;;17.70;7.47;;;;;;;;;;4991039;28;20034;-77
2023/03/23 00:41:50;;;;;;;14.68;7.43;;;;;;;;;;4989807;28;20030;-77
2023/03/23 00:44:19;;;;;;;15.75;8.20;;;;;;;;;;4989728;28;20069;-77
2023/03/23 00:46:46;;;;;;;12.95;7.78;;;;;;;;;;4989615;28;20030;-77
2023/03/23 00:49:13;;;;;;;14.80;7.15;;;;;;;;;;4988830;28;20038;-78
2023/03/23 00:51:40;;;;;;;12.45;7.38;;;;;;;;;;4988923;28;20061;-77
2023/03/23 00:54:05;;;;;;;12.07;7.47;;;;;;;;;;4990248;28;20034;-78
2023/03/23 00:56:31;;;;;;;14.68;7.90;;;;;;;;;;4989126;28;20136;-77
2023/03/23 00:58:57;;;;;;;12.15;6.97;;;;;;;;;;4989107;28;20100;-78
2023/03/23 01:01:22;;;;;;;15.43;6.88;;;;;;;;;;4990702;28;20388;-77
2023/03/23 01:03:49;;;;;;;13.60;7.53;;;;;;;;;;4990645;28;20034;-78
2023/03/23 01:06:15;;;;;;;12.57;7.32;;;;;;;;;;4988871;28;20038;-78
2023/03/23 01:08:45;;;;;;;11.48;7.38;;;;;;;;;;4989013;28;20061;-77
2023/03/23 01:11:14;;;;;;;12.52;7.10;;;;;;;;;;4989567;28;20505;-77
2023/03/23 01:13:41;;;;;;;13.85;7.80;;;;;;;;;;4990255;28;20165;-77
2023/03/23 01:16:07;;;;;;;15.57;7.82;;;;;;;;;;4989225;28;20022;-77
2023/03/23 01:18:33;;;;;;;16.60;7.28;;;;;;;;;;4989325;28;20054;-77
2023/03/23 01:21:24;;;;;;;12.70;6.72;;;;;;;;;;4991307;28;20034;-78
2023/03/23 01:23:50;;;;;;;14.93;8.38;;;;;;;;;;4992062;28;20597;-78
2023/03/23 01:26:18;;;;;;;11.35;6.97;;;;;;;;;;4994772;28;20109;-78
2023/03/23 01:28:44;;;;;;;13.25;7.25;;;;;;;;;;5000307;28;20450;-78
2023/03/23 01:31:13;;;;;;;12.15;6.88;;;;;;;;;;4994244;28;20032;-78
2023/03/23 01:33:40;;;;;;;10.23;6.50;;;;;;;;;;4993222;28;20113;-77
2023/03/23 01:36:17;;;;;;;10.93;6.45;;;;;;;;;;4993850;28;20062;-77
2023/03/23 01:38:45;;;;;;;12.73;6.57;;;;;;;;;;4991283;28;20034;-78
2023/03/23 01:41:11;;;;;;;11.60;6.72;;;;;;;;;;4972946;28;20113;-78
2023/03/23 01:43:57;;;;;;;11.90;6.78;;;;;;;;;;4972648;28;20031;-78
2023/03/23 01:46:26;;;;;;;11.32;7.20;;;;;;;;;;4974303;28;20475;-77
2023/03/23 01:48:51;;;;;;;11.77;7.00;;;;;;;;;;4974777;28;20023;-77
2023/03/23 01:51:20;;;;;;;12.43;6.60;;;;;;;;;;4972925;28;20033;-77
2023/03/23 01:53:51;;;;;;;13.15;6.88;;;;;;;;;;4972840;28;20038;-77
2023/03/23 01:56:24;;;;;;;16.35;7.40;;;;;;;;;;4973165;28;20034;-76
2023/03/23 01:58:51;;;;;;;13.30;6.38;;;;;;;;;;4973173;28;20057;-78
2023/03/23 02:01:17;;;;;;;12.25;7.60;;;;;;;;;;4972954;28;20034;-77
2023/03/23 02:03:45;;;;;;;19.75;7.72;;;;;;;;;;4974320;28;20061;-77
2023/03/23 02:06:11;;;;;;;11.05;6.47;;;;;;;;;;4972889;28;20026;-77
2023/03/23 02:08:40;;;;;;;14.68;7.25;;;;;;;;;;4974247;28;20049;-77
2023/03/23 02:11:21;;;;;;;10.95;7.00;;;;;;;;;;4972761;28;20217;-77
2023/03/23 02:13:47;;;;;;;16.50;8.60;;;;;;;;;;4972852;28;20097;-77
2023/03/23 02:16:47;;;;;;;13.00;7.32;;;;;;;;;;4973790;28;20038;-77
2023/03/23 02:19:44;;;;;;;15.50;8.07;;;;;;;;;;4972346;28;20062;-77
2023/03/23 02:22:31;;;;;;;11.35;6.95;;;;;;;;;;4973188;28;20033;-77
2023/03/23 02:25:09;;;;;;;17.17;7.68;;;;;;;;;;4975659;28;20038;-77
2023/03/23 02:27:53;;;;;;;13.15;6.80;;;;;;;;;;4975055;28;20022;-77
2023/03/23 02:31:03;;;;;;;13.60;7.15;;;;;;;;;;4976833;28;20070;-77
2023/03/23 02:33:41;;;;;;;11.07;6.32;;;;;;;;;;4933945;28;20043;-76
2023/03/23 02:36:30;;;;;;;14.43;7.47;;;;;;;;;;4976179;28;20035;-77
2023/03/23 02:39:02;;;;;;;12.55;7.07;;;;;;;;;;4980038;28;20104;-77
2023/03/23 02:41:32;;;;;;;15.48;6.85;;;;;;;;;;4983951;28;20063;-77
2023/03/23 02:43:58;;;;;;;11.00;6.78;;;;;;;;;;4981841;28;20122;-77
2023/03/23 02:46:25;;;;;;;13.07;6.68;;;;;;;;;;4973297;28;20110;-77
2023/03/23 02:48:56;;;;;;;13.60;6.72;;;;;;;;;;4972513;28;20027;-77
2023/03/23 02:51:23;;;;;;;13.77;7.70;;;;;;;;;;4971895;28;20511;-77
2023/03/23 02:53:51;;;;;;;10.82;7.00;;;;;;;;;;4971856;28;20028;-77
2023/03/23 02:56:19;;;;;;;13.98;6.90;;;;;;;;;;4971867;28;20023;-76
2023/03/23 02:58:45;;;;;;;15.20;6.97;;;;;;;;;;4971817;28;20148;-76
2023/03/23 03:01:36;;;;;;;13.63;7.10;;;;;;;;;;4971767;28;20026;-76
2023/03/23 03:04:14;;;;;;;12.52;6.95;;;;;;;;;;4973116;28;20065;-77
2023/03/23 03:07:24;;;;;;;12.25;7.43;;;;;;;;;;4991715;28;20032;-77
2023/03/23 03:10:06;;;;;;;14.40;7.10;;;;;;;;;;4990949;28;20061;-77
2023/03/23 03:12:54;;;;;;;9.63;6.30;;;;;;;;;;4991188;28;20445;-77
2023/03/23 03:15:29;;;;;;;15.07;7.10;;;;;;;;;;4990875;28;20033;-75
2023/03/23 03:18:27;;;;;;;14.82;6.88;;;;;;;;;;4990428;28;20049;-78
2023/03/23 03:21:03;;;;;;;13.35;6.93;;;;;;;;;;5002102;28;20139;-75
2023/03/23 03:23:31;;;;;;;14.35;6.78;;;;;;;;;;4990460;28;20065;-76
2023/03/23 03:25:58;;;;;;;13.02;7.05;;;;;;;;;;4991918;28;20026;-77
2023/03/23 03:28:26;;;;;;;12.32;6.90;;;;;;;;;;4990890;28;20176;-76
2023/03/23 03:31:00;;;;;;;11.77;6.60;;;;;;;;;;4990573;28;20019;-76
2023/03/23 03:33:27;;;;;;;11.27;6.88;;;;;;;;;;4990483;28;20030;-77
2023/03/23 03:35:57;;;;;;;10.00;5.88;;;;;;;;;;4991545;28;20108;-76
2023/03/23 03:38:23;;;;;;;12.20;6.80;;;;;;;;;;4990301;28;20034;-76
2023/03/23 03:40:49;;;;;;;12.85;6.82;;;;;;;;;;4989793;28;20057;-77
2023/03/23 03:43:15;;;;;;;20.55;6.50;;;;;;;;;;5006174;28;20068;-77
2023/03/23 03:45:41;;;;;;;14.27;6.32;;;;;;;;;;4991630;28;20623;-77
2023/03/23 03:48:07;;;;;;;11.25;7.00;;;;;;;;;;5005898;28;20018;-77
2023/03/23 03:50:33;;;;;;;12.30;6.75;;;;;;;;;;5006129;28;20066;-77
2023/03/23 03:52:58;;;;;;;14.57;5.85;;;;;;;;;;5007812;28;20237;-77
2023/03/23 03:55:25;;;;;;;9.93;6.30;;;;;;;;;;5006748;28;20084;-77
2023/03/23 03:57:50;;;;;;;10.85;6.50;;;;;;;;;;5006353;28;20034;-77
2023/03/23 04:00:17;;;;;;;11.70;6.57;;;;;;;;;;4991651;28;20021;-76
2023/03/23 04:02:47;;;;;;;14.48;7.30;;;;;;;;;;5006405;28;20030;-77
2023/03/23 04:05:13;;;;;;;16.13;6.93;;;;;;;;;;5006913;28;20030;-76
2023/03/23 04:07:39;;;;;;;11.40;6.10;;;;;;;;;;4991430;28;20023;-76
2023/03/23 04:10:06;;;;;;;12.90;6.80;;;;;;;;;;4991692;28;20030;-76
2023/03/23 04:12:32;;;;;;;18.02;7.20;;;;;;;;;;4990941;28;20098;-75
2023/03/23 04:14:58;;;;;;;15.45;6.47;;;;;;;;;;5007608;28;20044;-76
2023/03/23 04:17:25;;;;;;;12.60;7.30;;;;;;;;;;4992033;28;20058;-76
2023/03/23 04:19:52;;;;;;;14.50;5.95;;;;;;;;;;5006216;28;20501;-76
2023/03/23 04:22:17;;;;;;;11.18;6.15;;;;;;;;;;4991305;28;20165;-76
2023/03/23 04:24:43;;;;;;;21.02;7.13;;;;;;;;;;5006458;28;20112;-77
2023/03/23 04:27:08;;;;;;;14.38;5.97;;;;;;;;;;5006686;28;20117;-77
2023/03/23 04:29:34;;;;;;;10.70;5.82;;;;;;;;;;5006683;28;20490;-77
2023/03/23 04:32:01;;;;;;;11.38;7.80;;;;;;;;;;5006016;28;20034;-76
2023/03/23 04:34:27;;;;;;;11.68;6.50;;;;;;;;;;4991128;28;20631;-78
2023/03/23 04:36:52;;;;;;;12.57;6.47;;;;;;;;;;4990621;28;20030;-77
2023/03/23 04:39:18;;;;;;;14.18;7.20;;;;;;;;;;5003155;28;20053;-77
2023/03/23 04:41:45;;;;;;;10.98;6.72;;;;;;;;;;4990504;28;20037;-77
2023/03/23 04:44:17;;;;;;;15.98;6.43;;;;;;;;;;4991345;28;20069;-77
2023/03/23 04:46:45;;;;;;;14.68;6.50;;;;;;;;;;4990372;28;20022;-77
2023/03/23 04:49:11;;;;;;;10.60;5.63;;;;;;;;;;4989440;28;20836;-77
2023/03/23 04:51:36;;;;;;;10.15;6.45;;;;;;;;;;5005518;28;20042;-75
2023/03/23 04:54:02;;;;;;;10.98;6.70;;;;;;;;;;4990884;28;20033;-76
2023/03/23 04:56:27;;;;;;;12.55;6.68;;;;;;;;;;4990606;28;20030;-76
2023/03/23 04:58:53;;;;;;;11.95;5.70;;;;;;;;;;4989777;28;20030;-79
2023/03/23 05:01:19;;;;;;;9.63;6.10;;;;;;;;;;4989414;28;20027;-77
2023/03/23 05:03:44;;;;;;;12.85;5.97;;;;;;;;;;5005482;28;20133;-77
2023/03/23 05:06:10;;;;;;;11.38;6.60;;;;;;;;;;4989235;28;20149;-77
2023/03/23 05:08:38;;;;;;;8.57;5.75;;;;;;;;;;4990320;28;20513;-77
2023/03/23 05:11:05;;;;;;;12.98;6.78;;;;;;;;;;4989656;28;20455;-76
2023/03/23 05:13:31;;;;;;;11.30;6.40;;;;;;;;;;4990437;28;20568;-76
2023/03/23 05:15:57;;;;;;;13.88;7.00;;;;;;;;;;4988955;28;20030;-77
2023/03/23 05:18:22;;;;;;;14.70;7.60;;;;;;;;;;4989039;28;20053;-77
2023/03/23 05:20:48;;;;;;;14.77;7.00;;;;;;;;;;4990600;28;20130;-77
2023/03/23 05:23:14;;;;;;;9.70;6.13;;;;;;;;;;4989211;28;20124;-77
2023/03/23 05:25:40;;;;;;;10.27;5.93;;;;;;;;;;4989103;28;20049;-77
2023/03/23 05:28:11;;;;;;;8.50;5.70;;;;;;;;;;4989561;28;20037;-76
2023/03/23 05:30:38;;;;;;;11.57;5.93;;;;;;;;;;4985783;28;20446;-77
2023/03/23 05:33:04;;;;;;;8.40;5.60;;;;;;;;;;4980950;28;20406;-76
2023/03/23 05:35:30;;;;;;;13.13;5.22;;;;;;;;;;4987625;28;20379;-75
2023/03/23 05:37:59;;;;;;;11.70;5.20;;;;;;;;;;4985641;28;20093;-74
2023/03/23 05:40:25;;;;;;;9.85;5.93;;;;;;;;;;4985377;28;20049;-77
2023/03/23 05:42:52;;;;;;;11.45;5.70;;;;;;;;;;4986238;28;20080;-78
2023/03/23 05:45:18;;;;;;;13.50;5.40;;;;;;;;;;4985713;28;20045;-76
2023/03/23 05:47:44;;;;;;;11.27;5.70;;;;;;;;;;4985404;28;20027;-77
2023/03/23 05:50:13;;;;;;;11.23;4.95;;;;;;;;;;4982342;28;20030;-77
2023/03/23 05:52:39;;;;;;;8.38;4.65;;;;;;;;;;4999814;28;20406;-76
2023/03/23 05:55:07;;;;;;;13.10;5.95;;;;;;;;;;4987698;28;20486;-74
2023/03/23 05:57:33;;;;;;;23.85;7.85;;;;;;;;;;4985235;28;20486;-73
2023/03/23 05:59:59;;;;;;;11.48;5.50;;;;;;;;;;4993096;28;20037;-76
2023/03/23 06:02:28;;;;;;;7.72;5.05;;;;;;;;;;4987843;28;20030;-77
2023/03/23 06:04:58;;;;;;;10.23;5.75;;;;;;;;;;4971811;28;20121;-74
2023/03/23 06:07:24;;;;;;;13.18;4.90;;;;;;;;;;4969347;28;20080;-75
2023/03/23 06:09:53;;;;;;;11.52;5.50;;;;;;;;;;4992780;28;20086;-77
2023/03/23 06:12:22;;;;;;;17.48;5.68;;;;;;;;;;5006653;28;20065;-80
2023/03/23 06:14:50;;;;;;;7.70;4.45;;;;;;;;;;5000909;28;20074;-77
2023/03/23 06:17:17;;;;;;;9.90;4.82;;;;;;;;;;4990533;28;20100;-75
2023/03/23 06:19:43;;;;;;;9.90;5.10;;;;;;;;;;4992923;28;20060;-74
2023/03/23 06:22:09;;;;;;;15.30;4.97;;;;;;;;;;4977001;28;20127;-75
2023/03/23 06:24:35;;;;;;;7.60;4.32;;;;;;;;;;4997129;28;20423;-74
2023/03/23 06:27:01;;;;;;;8.80;4.85;;;;;;;;;;4978055;28;20034;-75
2023/03/23 06:29:27;;;;;;;9.25;4.65;;;;;;;;;;4981480;28;20038;-73
2023/03/23 06:31:57;;;;;;;14.27;4.90;;;;;;;;;;5008877;28;20029;-75
2023/03/23 06:34:22;;;;;;;9.88;4.80;;;;;;;;;;4992337;28;20069;-74
2023/03/23 06:36:48;;;;;;;7.45;4.47;;;;;;;;;;4991269;28;20151;-77
2023/03/23 06:39:15;;;;;;;7.10;3.70;;;;;;;;;;4986201;28;20030;-77
2023/03/23 06:41:41;;;;;;;8.68;4.78;;;;;;;;;;5003498;28;20122;-81
2023/03/23 06:44:07;;;;;;;7.80;3.90;;;;;;;;;;4985442;28;21085;-77
2023/03/23 06:46:32;;;;;;;9.25;4.07;;;;;;;;;;4988947;28;20225;-78
2023/03/23 06:48:58;;;;;;;10.25;4.60;;;;;;;;;;4981896;28;20681;-75
2023/03/23 06:51:23;;;;;;;8.80;4.10;;;;;;;;;;4988541;28;20041;-75
2023/03/23 06:53:50;;;;;;;10.43;4.30;;;;;;;;;;4986336;28;20026;-74
2023/03/23 06:56:16;;;;;;;9.90;4.13;;;;;;;;;;4981806;28;20026;-77
2023/03/23 06:58:42;;;;;;;10.82;3.50;;;;;;;;;;4987060;28;20034;-77
2023/03/23 07:01:09;;;;;;;7.38;3.75;;;;;;;;;;4988348;28;20038;-74
2023/03/23 07:03:36;;;;;;;9.00;3.80;;;;;;;;;;4987221;28;20069;-73
2023/03/23 07:06:03;;;;;;;11.05;3.97;;;;;;;;;;5000592;28;20125;-78
2023/03/23 07:08:30;;;;;;;9.50;4.32;;;;;;;;;;4965734;28;20049;-75
2023/03/23 07:11:02;;;;;;;9.02;4.10;;;;;;;;;;4970902;28;20039;-80
2023/03/23 07:13:28;;;;;;;7.55;3.53;;;;;;;;;;4976785;28;20447;-74
2023/03/23 07:15:57;;;;;;;8.50;3.10;;;;;;;;;;5003919;28;20042;-75
2023/03/23 07:18:24;;;;;;;5.78;2.97;;;;;;;;;;4988268;28;20314;-77
2023/03/23 07:20:50;;;;;;;5.97;3.40;;;;;;;;;;4983769;28;20379;-78
2023/03/23 07:23:17;;;;;;;7.15;3.60;;;;;;;;;;4990003;28;20129;-74
2023/03/23 07:25:53;;;;;;;5.18;2.67;;;;;;;;;;4991648;28;20038;-81
2023/03/23 07:28:19;;;;;;;10.93;3.60;;;;;;;;;;4989263;28;20153;-76
2023/03/23 07:30:45;;;;;;;6.10;2.88;;;;;;;;;;4992161;28;20161;-83
2023/03/23 07:33:12;;;;;;;6.30;2.60;;;;;;;;;;4992605;28;20026;-75
2023/03/23 07:35:37;;;;;;;5.97;2.67;;;;;;;;;;4973560;28;20029;-76
2023/03/23 07:38:05;;;;;;;6.30;3.17;;;;;;;;;;4972684;28;20038;-74
2023/03/23 07:40:33;;;;;;;8.13;3.05;;;;;;;;;;4991852;28;20442;-75
2023/03/23 07:43:00;;;;;;;7.90;2.85;;;;;;;;;;4995440;28;20059;-78
2023/03/23 07:45:26;;;;;;;6.68;3.47;;;;;;;;;;4981399;28;20073;-77
2023/03/23 07:47:52;;;;;;;3.17;2.33;;;;;;;;;;4984226;28;20069;-76
2023/03/23 07:50:22;;;;;;;5.13;2.53;;;;;;;;;;4982219;28;20388;-78
2023/03/23 07:52:48;;;;;;;7.30;2.65;;;;;;;;;;4986992;28;20064;-74
2023/03/23 07:55:17;;;;;;;9.55;2.75;;;;;;;;;;4991981;28;20050;-73
2023/03/23 07:57:49;;;;;;;5.43;2.50;;;;;;;;;;4993056;28;20034;-80
2023/03/23 08:00:19;;;;;;;4.78;2.35;;;;;;;;;;4991966;28;20109;-76
2023/03/23 08:02:50;;;;;;;6.40;2.15;;;;;;;;;;4988777;28;20130;-74
2023/03/23 08:05:17;;;;;;;4.10;2.45;;;;;;;;;;4986674;28;20466;-78
2023/03/23 08:07:44;;;;;;;4.70;2.78;;;;;;;;;;4984535;28;20028;-77
2023/03/23 08:10:12;;;;;;;7.95;3.47;;;;;;;;;;4978178;28;20026;-77
2023/03/23 08:12:39;;;;;;;5.32;2.88;;;;;;;;;;4973558;28;20466;-76
2023/03/23 08:15:06;;;;;;;54.70;9.00;;;;;;;;;;4959604;28;20451;-78
2023/03/23 08:17:32;;;;;;;5.80;3.47;;;;;;;;;;4974753;28;20066;-77
2023/03/23 08:19:59;;;;;;;11.25;3.10;;;;;;;;;;4982543;28;20050;-77
2023/03/23 08:22:24;;;;;;;6.10;2.47;;;;;;;;;;4977745;28;20406;-77
2023/03/23 08:24:50;;;;;;;4.30;2.60;;;;;;;;;;4988636;28;20038;-77
2023/03/23 08:27:16;;;;;;;5.93;3.30;;;;;;;;;;4992879;28;20026;-77
2023/03/23 08:29:44;;;;;;;6.57;2.38;;;;;;;;;;4974308;28;20113;-78
2023/03/23 08:32:10;;;;;;;3.65;2.47;;;;;;;;;;4980799;28;20082;-77
2023/03/23 08:34:36;;;;;;;4.93;2.20;;;;;;;;;;4980214;28;20853;-75
2023/03/23 08:37:03;;;;;;;21.33;4.30;;;;;;;;;;4987693;28;20077;-75
2023/03/23 08:39:30;;;;;;;3.40;2.17;;;;;;;;;;4977133;28;20061;-78
2023/03/23 08:41:59;;;;;;;10.10;2.50;;;;;;;;;;4946538;28;20042;-82
2023/03/23 08:44:26;;;;;;;11.48;2.30;;;;;;;;;;4971699;28;20102;-77
2023/03/23 08:46:56;;;;;;;5.88;2.40;;;;;;;;;;4975085;28;20034;-74
2023/03/23 08:49:25;;;;;;;6.95;2.38;;;;;;;;;;4982518;28;20513;-75
2023/03/23 08:51:52;;;;;;;6.85;2.20;;;;;;;;;;4979449;28;20037;-78
2023/03/23 08:54:18;;;;;;;3.83;2.33;;;;;;;;;;4959666;28;20530;-77
2023/03/23 08:56:44;;;;;;;9.07;2.92;;;;;;;;;;4978552;28;20443;-78
2023/03/23 08:59:10;;;;;;;4.38;1.85;;;;;;;;;;4973136;28;20042;-75
2023/03/23 09:01:35;;;;;;;3.50;1.90;;;;;;;;;;4976149;28;20581;-79
2023/03/23 09:04:01;;;;;;;9.13;2.53;;;;;;;;;;4980376;28;20086;-73
2023/03/23 09:06:27;;;;;;;4.15;2.58;;;;;;;;;;4975456;28;20033;-75
2023/03/23 09:08:55;;;;;;;6.35;2.25;;;;;;;;;;4977519;28;20179;-76
2023/03/23 09:11:22;;;;;;;5.82;2.25;;;;;;;;;;4978424;28;20027;-76
2023/03/23 09:13:48;;;;;;;7.90;2.72;;;;;;;;;;4987275;28;20036;-78
2023/03/23 09:16:14;;;;;;;7.25;2.10;;;;;;;;;;4986128;28;20042;-79
2023/03/23 09:18:40;;;;;;;8.65;2.53;;;;;;;;;;4981770;28;20058;-78
2023/03/23 09:21:20;;;;;;;5.93;2.40;;;;;;;;;;4976477;28;20030;-77
2023/03/23 09:23:48;;;;;;;4.97;1.83;;;;;;;;;;4973464;28;20029;-78
2023/03/23 09:26:15;;;;;;;12.85;1.85;;;;;;;;;;4980337;28;20518;-80
2023/03/23 09:28:41;;;;;;;15.73;3.00;;;;;;;;;;4995891;28;20450;-78
2023/03/23 09:31:07;;;;;;;5.75;2.00;;;;;;;;;;4965742;28;20042;-78
2023/03/23 09:33:33;;;;;;;4.25;2.22;;;;;;;;;;4997937;28;20424;-78
2023/03/23 09:35:59;;;;;;;7.82;2.83;;;;;;;;;;4983454;28;20045;-76
2023/03/23 09:38:24;;;;;;;4.88;2.13;;;;;;;;;;4985004;28;20035;-78
2023/03/23 09:41:14;;;;;;;5.53;2.30;;;;;;;;;;4965414;28;20034;-79
2023/03/23 09:44:04;;;;;;;2.67;1.98;;;;;;;;;;4986766;28;20092;-78
2023/03/23 09:46:54;;;;;;;71.75;7.97;;;;;;;;;;4987477;28;20030;-77
2023/03/23 09:49:28;;;;;;;5.22;2.42;;;;;;;;;;4998103;28;20048;-79
2023/03/23 09:52:03;;;;;;;5.90;1.80;;;;;;;;;;4974942;28;20037;-76
2023/03/23 09:54:38;;;;;;;5.55;2.20;;;;;;;;;;4999595;28;20443;-78
2023/03/23 09:57:14;;;;;;;4.85;2.05;;;;;;;;;;4980310;28;20605;-77
2023/03/23 10:00:05;;;;;;;14.63;1.52;;;;;;;;;;4983923;28;20386;-77
2023/03/23 10:02:52;;;;;;;2.55;1.23;;;;;;;;;;4985453;28;20034;-78
2023/03/23 10:05:35;;;;;;;3.40;1.30;;;;;;;;;;4986417;28;20046;-82
2023/03/23 10:08:12;;;;;;;2.25;1.38;;;;;;;;;;4981825;28;20109;-78
2023/03/23 10:11:01;;;;;;;4.07;1.02;;;;;;;;;;4982580;28;20120;-78
2023/03/23 10:13:52;;;;;;;2.22;1.17;;;;;;;;;;4989788;28;20022;-77
2023/03/23 10:16:22;;;;;;;0.80;0.80;;;;;;;;;;4985524;28;20026;-78
2023/03/23 10:19:31;;;;;;;1.35;0.85;;;;;;;;;;4981441;28;20070;-76
2023/03/23 10:22:16;;;;;;;7.65;1.20;;;;;;;;;;4971763;28;20038;-78
2023/03/23 10:25:12;;;;;;;6.97;1.30;;;;;;;;;;4971910;28;20500;-79
2023/03/23 10:27:47;;;;;;;2.28;1.02;;;;;;;;;;4995448;28;20102;-78
2023/03/23 10:30:23;;;;;;;1.80;1.10;;;;;;;;;;4981533;28;20041;-76
2023/03/23 10:33:03;;;;;;;4.95;1.25;;;;;;;;;;4977291;28;20475;-79
2023/03/23 10:35:35;;;;;;;3.13;1.08;;;;;;;;;;4998364;28;20034;-81
2023/03/23 10:38:05;;;;;;;3.97;1.17;;;;;;;;;;4980675;28;20027;-78
2023/03/23 10:40:34;;;;;;;4.47;1.45;;;;;;;;;;4969744;28;20026;-77
2023/03/23 10:43:01;;;;;;;4.10;1.45;;;;;;;;;;4987104;28;20053;-79
2023/03/23 10:45:32;;;;;;;4.25;1.35;;;;;;;;;;4981267;28;20030;-77
2023/03/23 10:48:36;;;;;;;2.88;1.20;;;;;;;;;;4983681;28;20058;-78
2023/03/23 10:51:06;;;;;;;1.30;1.15;;;;;;;;;;4983572;28;20176;-77
2023/03/23 10:53:38;;;;;;;3.97;1.35;;;;;;;;;;4989695;28;20086;-78
2023/03/23 10:56:05;;;;;;;2.28;1.20;;;;;;;;;;4990471;28;20449;-79
2023/03/23 10:58:35;;;;;;;2.22;1.42;;;;;;;;;;4991188;28;20033;-77
2023/03/23 11:01:04;;;;;;;1.27;1.02;;;;;;;;;;4987692;28;20470;-79
2023/03/23 11:03:33;;;;;;;1.88;1.40;;;;;;;;;;4998791;28;20038;-79
2023/03/23 11:06:03;;;;;;;2.97;1.38;;;;;;;;;;4995600;28;20030;-80
2023/03/23 11:08:35;;;;;;;1.77;1.20;;;;;;;;;;4992802;28;20861;-78
2023/03/23 11:11:25;;;;;;;3.72;1.33;;;;;;;;;;4989172;28;20038;-75
2023/03/23 11:14:00;;;;;;;2.22;1.20;;;;;;;;;;4993564;28;20062;-78
2023/03/23 11:16:33;;;;;;;3.40;1.10;;;;;;;;;;5007786;28;20042;-75
2023/03/23 11:19:11;;;;;;;2.63;0.93;;;;;;;;;;5000092;28;20050;-78
2023/03/23 11:21:38;;;;;;;2.90;1.40;;;;;;;;;;4976668;28;20041;-78
2023/03/23 11:24:05;;;;;;;3.60;1.52;;;;;;;;;;4985265;28;20026;-78
2023/03/23 11:26:34;;;;;;;2.80;1.25;;;;;;;;;;4978694;28;20140;-75
2023/03/23 11:29:11;;;;;;;1.88;1.25;;;;;;;;;;4968545;28;21126;-76
2023/03/23 11:32:05;;;;;;;3.28;1.48;;;;;;;;;;4993381;28;20045;-76
2023/03/23 11:34:35;;;;;;;3.55;1.40;;;;;;;;;;4972270;28;20038;-77
2023/03/23 11:37:08;;;;;;;2.58;1.40;;;;;;;;;;4990373;28;20030;-78
2023/03/23 11:39:54;;;;;;;2.90;1.38;;;;;;;;;;4977822;28;20046;-78
2023/03/23 11:42:27;;;;;;;2.67;1.50;;;;;;;;;;4980397;28;20068;-79
2023/03/23 11:44:56;;;;;;;2.38;1.38;;;;;;;;;;4984912;28;20091;-80
2023/03/23 11:47:28;;;;;;;2.15;1.38;;;;;;;;;;4980685;28;20022;-77
2023/03/23 11:50:14;;;;;;;2.55;1.17;;;;;;;;;;4979415;28;20736;-77
2023/03/23 11:52:47;;;;;;;2.03;1.40;;;;;;;;;;4980152;28;20034;-79
2023/03/23 11:55:28;;;;;;;1.17;1.08;;;;;;;;;;4984991;28;20049;-81
2023/03/23 11:58:00;;;;;;;2.47;1.60;;;;;;;;;;4982836;28;20052;-81
2023/03/23 12:00:26;;;;;;;;;;;;;;;;;;4980470;28;20038;-80
2023/03/23 12:03:29;;;;;;;2.50;1.40;;;;;;;;;;4991640;28;19964;-79
2023/03/23 12:06:35;;;;;;;1.77;1.25;;;;;;;;;;4981810;28;20125;-78
2023/03/23 12:09:23;;;;;;;3.65;1.20;;;;;;;;;;4983461;28;20030;-82
2023/03/23 12:12:18;;;;;;;2.63;1.38;;;;;;;;;;4995151;28;20065;-80
2023/03/23 12:14:56;;;;;;;2.33;1.63;;;;;;;;;;4983211;28;20534;-81
2023/03/23 12:17:52;;;;;;;3.10;1.35;;;;;;;;;;4986232;28;20041;-80
2023/03/23 12:20:32;;;;;;;4.70;1.50;;;;;;;;;;4984542;28;20070;-79
2023/03/23 12:23:33;;;;;;;3.25;1.80;;;;;;;;;;4999349;28;20033;-80
2023/03/23 12:26:18;;;;;;;2.00;1.30;;;;;;;;;;4983441;28;20026;-80
2023/03/23 12:29:08;;;;;;;5.00;1.38;;;;;;;;;;4983571;28;20057;-79
2023/03/23 12:31:46;;;;;;;2.92;1.40;;;;;;;;;;4998995;28;20034;-78
2023/03/23 12:34:39;;;;;;;3.65;1.50;;;;;;;;;;4988205;28;20272;-82
2023/03/23 12:37:10;;;;;;;5.45;1.38;;;;;;;;;;4993130;28;20057;-79
2023/03/23 12:40:21;;;;;;;4.05;1.40;;;;;;;;;;4994371;28;20030;-75
2023/03/23 12:43:03;;;;;;;2.85;1.65;;;;;;;;;;5006280;28;20030;-75
2023/03/23 12:46:17;;;;;;;2.33;1.33;;;;;;;;;;5026899;28;20030;-80
2023/03/23 12:48:54;;;;;;;1.98;1.23;;;;;;;;;;4993838;28;20038;-81
2023/03/23 12:51:42;;;;;;;2.78;1.50;;;;;;;;;;4997405;28;20026;-79
2023/03/23 12:54:33;;;;;;;8.68;1.80;;;;;;;;;;5001618;28;20049;-79
2023/03/23 12:57:08;;;;;;;8.10;1.52;;;;;;;;;;4993452;28;20103;-77
2023/03/23 12:59:52;;;;;;;1.83;1.35;;;;;;;;;;4981188;28;20064;-78
2023/03/23 13:02:27;;;;;;;2.15;1.27;;;;;;;;;;4984256;28;20037;-80
2023/03/23 13:05:06;;;;;;;4.15;1.48;;;;;;;;;;4985424;28;20034;-80
2023/03/23 13:07:46;;;;;;;5.47;1.23;;;;;;;;;;4983512;28;20545;-80
2023/03/23 13:10:43;;;;;;;3.28;1.00;;;;;;;;;;4983019;28;20030;-80
2023/03/23 13:13:16;;;;;;;8.18;1.52;;;;;;;;;;4978751;28;20371;-79
2023/03/23 13:15:56;;;;;;;5.78;1.50;;;;;;;;;;4983137;28;20081;-79
2023/03/23 13:18:48;;;;;;;3.30;1.45;;;;;;;;;;4982975;28;20034;-79
2023/03/23 13:21:26;;;;;;;3.63;1.40;;;;;;;;;;4982318;28;20049;-80
2023/03/23 13:24:03;;;;;;;6.53;1.60;;;;;;;;;;4985312;28;20030;-78
2023/03/23 13:26:30;;;;;;;4.75;1.10;;;;;;;;;;4991389;28;20038;-80
2023/03/23 13:29:21;;;;;;;2.80;1.48;;;;;;;;;;4985795;28;20046;-77
2023/03/23 13:31:49;;;;;;;1.38;1.10;;;;;;;;;;4999681;28;20034;-78
2023/03/23 13:34:29;;;;;;;5.15;1.30;;;;;;;;;;4986237;28;20122;-78
2023/03/23 13:37:05;;;;;;;1.33;1.20;;;;;;;;;;4987587;28;20049;-77
2023/03/23 13:39:37;;;;;;;1.77;1.25;;;;;;;;;;4980689;28;20046;-78
2023/03/23 13:42:09;;;;;;;1.25;1.15;;;;;;;;;;4982907;28;20026;-76
2023/03/23 13:44:55;;;;;;;;;;;;;;;;;;4991129;28;20049;-77
2023/03/23 13:47:21;;;;;;;5.05;1.63;;;;;;;;;;4988799;28;19922;-79
2023/03/23 13:50:01;;;;;;;3.70;1.30;;;;;;;;;;4988964;28;20026;-79
2023/03/23 13:52:52;;;;;;;2.35;1.15;;;;;;;;;;4982692;28;20045;-79
2023/03/23 13:55:29;;;;;;;2.28;1.52;;;;;;;;;;5006129;28;20026;-79
2023/03/23 13:57:58;;;;;;;2.58;1.55;;;;;;;;;;4987486;28;20039;-79
2023/03/23 14:00:30;;;;;;;2.33;1.10;;;;;;;;;;4987959;28;20058;-78
2023/03/23 14:03:21;;;;;;;;;;;;;;;;;;4989448;28;20046;-77
2023/03/23 14:06:05;;;;;;;2.63;1.17;;;;;;;;;;4970563;28;20378;-77
2023/03/23 14:08:30;;;;;;;5.18;1.83;;;;;;;;;;4996320;28;20043;-79
2023/03/23 14:11:03;;;;;;;8.35;2.17;;;;;;;;;;4992451;28;20073;-76
2023/03/23 14:13:32;;;;;;;4.07;1.50;;;;;;;;;;4992528;28;20034;-78
2023/03/23 14:16:13;;;;;;;5.25;1.42;;;;;;;;;;4991987;28;20036;-78
2023/03/23 14:18:42;;;;;;;2.30;1.50;;;;;;;;;;4987324;28;20046;-76
2023/03/23 14:21:17;;;;;;;4.07;2.05;;;;;;;;;;4988901;28;20038;-79
2023/03/23 14:23:43;;;;;;;6.90;1.40;;;;;;;;;;4991123;28;20108;-79
2023/03/23 14:26:20;;;;;;;4.18;1.50;;;;;;;;;;4989819;28;20065;-80
2023/03/23 14:28:50;;;;;;;3.03;1.30;;;;;;;;;;4988509;28;20184;-80
2023/03/23 14:31:23;;;;;;;2.72;1.60;;;;;;;;;;4981975;28;20089;-75
2023/03/23 14:33:50;;;;;;;2.53;1.80;;;;;;;;;;4985041;28;20049;-80
2023/03/23 14:36:25;;;;;;;4.35;1.58;;;;;;;;;;4976723;28;20160;-77
2023/03/23 14:39:23;;;;;;;3.65;1.88;;;;;;;;;;4985920;28;20038;-80
2023/03/23 14:41:50;;;;;;;4.82;1.48;;;;;;;;;;4984888;28;20081;-80
2023/03/23 14:44:31;;;;;;;2.03;1.63;;;;;;;;;;4987496;28;20037;-77
2023/03/23 14:47:01;;;;;;;6.55;1.70;;;;;;;;;;4986690;28;20113;-82
2023/03/23 14:49:40;;;;;;;3.78;1.70;;;;;;;;;;4986409;28;20030;-77
2023/03/23 14:52:17;;;;;;;10.70;2.22;;;;;;;;;;4979529;28;20037;-79
2023/03/23 14:54:44;;;;;;;3.92;1.73;;;;;;;;;;4981183;28;20109;-77
2023/03/23 14:57:16;;;;;;;3.25;1.67;;;;;;;;;;4979497;28;20015;-76
2023/03/23 14:59:48;;;;;;;3.30;1.50;;;;;;;;;;4980892;28;20036;-77
2023/03/23 15:02:33;;;;;;;4.63;1.52;;;;;;;;;;4984609;28;20808;-77
2023/03/23 15:05:11;;;;;;;2.75;1.83;;;;;;;;;;4987294;28;20022;-78
2023/03/23 15:07:40;;;;;;;3.33;1.60;;;;;;;;;;4984898;28;20731;-77
2023/03/23 15:10:08;;;;;;;4.13;1.70;;;;;;;;;;4971942;28;20061;-76